createdAt,value
2022-09-27T00:00:04.320Z,8
2022-09-27T00:01:04.348Z,8
2022-09-27T00:02:04.348Z,10
2022-09-27T00:03:04.348Z,8
2022-09-27T00:04:04.357Z,8
2022-09-27T00:05:04.349Z,8
2022-09-27T00:06:04.349Z,9
2022-09-27T00:07:04.350Z,8
2022-09-27T00:08:04.350Z,8
2022-09-27T00:09:04.350Z,8
2022-09-27T00:10:04.350Z,10
2022-09-27T00:11:04.323Z,9
2022-09-27T00:12:04.323Z,9
2022-09-27T00:13:04.323Z,8
2022-09-27T00:14:04.323Z,8
2022-09-27T00:15:04.324Z,8
2022-09-27T00:16:04.324Z,9
2022-09-27T00:17:04.352Z,9
2022-09-27T00:18:04.353Z,8
2022-09-27T00:19:04.353Z,8
2022-09-27T00:20:04.353Z,9
2022-09-27T00:21:04.354Z,10
2022-09-27T00:22:04.354Z,10
2022-09-27T00:23:04.354Z,10
2022-09-27T00:24:04.354Z,10
2022-09-27T00:25:04.355Z,9
2022-09-27T00:26:04.327Z,10
2022-09-27T00:27:04.327Z,9
2022-09-27T00:28:04.327Z,9
2022-09-27T00:29:04.328Z,8
2022-09-27T00:30:04.328Z,9
2022-09-27T00:31:04.328Z,7
2022-09-27T00:32:04.357Z,9
2022-09-27T00:33:04.357Z,10
2022-09-27T00:34:04.357Z,8
2022-09-27T00:35:04.358Z,8
2022-09-27T00:36:04.358Z,9
2022-09-27T00:37:04.358Z,8
2022-09-27T00:38:04.358Z,10
2022-09-27T00:39:04.359Z,9
2022-09-27T00:40:04.359Z,9
2022-09-27T00:41:04.331Z,8
2022-09-27T00:42:04.331Z,9
2022-09-27T00:43:04.332Z,7
2022-09-27T00:44:04.332Z,7
2022-09-27T00:45:04.332Z,7
2022-09-27T00:46:04.332Z,7
2022-09-27T00:47:04.361Z,8
2022-09-27T00:48:04.361Z,8
2022-09-27T00:49:04.361Z,8
2022-09-27T00:50:04.362Z,8
2022-09-27T00:51:04.362Z,8
2022-09-27T00:52:04.362Z,8
2022-09-27T00:53:04.363Z,6
2022-09-27T00:54:04.363Z,5
2022-09-27T00:55:04.363Z,7
2022-09-27T00:56:04.388Z,6
2022-09-27T00:57:04.336Z,6
2022-09-27T00:58:04.336Z,6
2022-09-27T00:59:04.336Z,6
2022-09-27T01:00:04.336Z,6
2022-09-27T01:01:04.337Z,6
2022-09-27T01:02:04.365Z,5
2022-09-27T01:03:04.365Z,4
2022-09-27T01:04:04.366Z,5
2022-09-27T01:05:04.374Z,5
2022-09-27T01:06:04.366Z,5
2022-09-27T01:07:04.366Z,4
2022-09-27T01:08:04.367Z,4
2022-09-27T01:09:04.367Z,4
2022-09-27T01:10:04.367Z,6
2022-09-27T01:11:04.368Z,4
2022-09-27T01:12:04.340Z,5
2022-09-27T01:13:04.340Z,5
2022-09-27T01:14:04.340Z,5
2022-09-27T01:15:04.341Z,5
2022-09-27T01:16:04.341Z,4
2022-09-27T01:17:04.341Z,3
2022-09-27T01:18:04.370Z,5
2022-09-27T01:19:04.370Z,4
2022-09-27T01:20:04.370Z,5
2022-09-27T01:21:04.370Z,4
2022-09-27T01:22:04.370Z,5
2022-09-27T01:23:04.371Z,4
2022-09-27T01:24:04.371Z,6
2022-09-27T01:25:04.371Z,6
2022-09-27T01:26:04.372Z,6
2022-09-27T01:27:04.344Z,7
2022-09-27T01:28:04.344Z,6
2022-09-27T01:29:04.344Z,6
2022-09-27T01:30:04.345Z,7
2022-09-27T01:31:04.345Z,7
2022-09-27T01:32:04.345Z,8
2022-09-27T01:33:04.373Z,6
2022-09-27T01:34:04.374Z,6
2022-09-27T01:35:04.374Z,8
2022-09-27T01:36:04.374Z,6
2022-09-27T01:37:04.375Z,7
2022-09-27T01:38:04.375Z,6
2022-09-27T01:39:04.375Z,6
2022-09-27T01:40:04.376Z,7
2022-09-27T01:41:04.376Z,8
2022-09-27T01:42:04.348Z,9
2022-09-27T01:43:04.348Z,10
2022-09-27T01:44:04.349Z,11
2022-09-27T01:45:04.349Z,11
2022-09-27T01:46:04.349Z,11
2022-09-27T01:47:04.349Z,12
2022-09-27T01:48:04.378Z,11
2022-09-27T01:49:04.378Z,12
2022-09-27T01:50:04.378Z,11
2022-09-27T01:51:04.378Z,11
2022-09-27T01:52:04.379Z,11
2022-09-27T01:53:04.379Z,11
2022-09-27T01:54:04.379Z,11
2022-09-27T01:55:04.380Z,11
2022-09-27T01:56:04.380Z,8
2022-09-27T01:57:04.405Z,8
2022-09-27T01:58:04.352Z,7
2022-09-27T01:59:04.353Z,7
2022-09-27T02:00:04.353Z,10
2022-09-27T02:01:04.353Z,8
2022-09-27T02:02:04.354Z,8
2022-09-27T02:03:04.382Z,9
2022-09-27T02:04:04.382Z,8
2022-09-27T02:05:04.383Z,10
2022-09-27T02:06:04.447Z,9
2022-09-27T02:07:04.383Z,9
2022-09-27T02:08:04.383Z,9
2022-09-27T02:09:04.384Z,8
2022-09-27T02:10:04.384Z,10
2022-09-27T02:11:04.384Z,8
2022-09-27T02:12:04.385Z,8
2022-09-27T02:13:04.357Z,6
2022-09-27T02:14:04.357Z,6
2022-09-27T02:15:04.357Z,6
2022-09-27T02:16:04.357Z,6
2022-09-27T02:17:04.358Z,5
2022-09-27T02:18:04.358Z,5
2022-09-27T02:19:04.386Z,7
2022-09-27T02:20:04.386Z,6
2022-09-27T02:21:04.387Z,7
2022-09-27T02:22:04.387Z,7
2022-09-27T02:23:04.388Z,7
2022-09-27T02:24:04.388Z,6
2022-09-27T02:25:04.388Z,6
2022-09-27T02:26:04.388Z,7
2022-09-27T02:27:04.389Z,6
2022-09-27T02:28:04.361Z,6
2022-09-27T02:29:04.361Z,7
2022-09-27T02:30:04.361Z,7
2022-09-27T02:31:04.361Z,7
2022-09-27T02:32:04.362Z,9
2022-09-27T02:33:04.362Z,8
2022-09-27T02:34:04.390Z,8
2022-09-27T02:35:04.391Z,7
2022-09-27T02:36:04.391Z,6
2022-09-27T02:37:04.391Z,7
2022-09-27T02:38:04.391Z,8
2022-09-27T02:39:04.392Z,7
2022-09-27T02:40:04.392Z,8
2022-09-27T02:41:04.392Z,8
2022-09-27T02:42:04.393Z,9
2022-09-27T02:43:04.365Z,6
2022-09-27T02:44:04.365Z,5
2022-09-27T02:45:04.365Z,5
2022-09-27T02:46:04.366Z,4
2022-09-27T02:47:04.366Z,4
2022-09-27T02:48:04.366Z,4
2022-09-27T02:49:04.394Z,7
2022-09-27T02:50:04.395Z,7
2022-09-27T02:51:04.395Z,6
2022-09-27T02:52:04.395Z,7
2022-09-27T02:53:04.396Z,6
2022-09-27T02:54:04.396Z,6
2022-09-27T02:55:04.396Z,6
2022-09-27T02:56:04.396Z,7
2022-09-27T02:57:04.397Z,7
2022-09-27T02:58:04.369Z,8
2022-09-27T02:59:04.369Z,8
2022-09-27T03:00:04.369Z,7
2022-09-27T03:01:04.370Z,6
2022-09-27T03:02:04.370Z,7
2022-09-27T03:03:04.370Z,5
2022-09-27T03:04:04.399Z,6
2022-09-27T03:05:04.399Z,4
2022-09-27T03:06:04.399Z,4
2022-09-27T03:07:04.399Z,5
2022-09-27T03:08:04.400Z,4
2022-09-27T03:09:04.400Z,6
2022-09-27T03:10:04.417Z,5
2022-09-27T03:11:04.400Z,6
2022-09-27T03:12:04.401Z,7
2022-09-27T03:13:04.410Z,7
2022-09-27T03:14:04.373Z,7
2022-09-27T03:15:04.373Z,9
2022-09-27T03:16:04.374Z,9
2022-09-27T03:17:04.374Z,10
2022-09-27T03:18:04.374Z,9
2022-09-27T03:19:04.403Z,12
2022-09-27T03:20:04.403Z,9
2022-09-27T03:21:04.403Z,9
2022-09-27T03:22:04.412Z,13
2022-09-27T03:23:04.404Z,12
2022-09-27T03:24:04.404Z,9
2022-09-27T03:25:04.404Z,9
2022-09-27T03:26:04.404Z,10
2022-09-27T03:27:04.405Z,9
2022-09-27T03:28:04.405Z,10
2022-09-27T03:29:04.377Z,12
2022-09-27T03:30:04.377Z,10
2022-09-27T03:31:04.378Z,10
2022-09-27T03:32:05.609Z,9
2022-09-27T03:33:04.378Z,10
2022-09-27T03:34:04.407Z,9
2022-09-27T03:35:04.407Z,10
2022-09-27T03:36:04.407Z,11
2022-09-27T03:37:04.407Z,9
2022-09-27T03:38:04.408Z,11
2022-09-27T03:39:04.408Z,13
2022-09-27T03:40:04.417Z,13
2022-09-27T03:41:04.409Z,14
2022-09-27T03:42:04.409Z,12
2022-09-27T03:43:04.409Z,10
2022-09-27T03:44:04.381Z,13
2022-09-27T03:45:04.381Z,12
2022-09-27T03:46:04.382Z,9
2022-09-27T03:47:04.382Z,9
2022-09-27T03:48:04.382Z,8
2022-09-27T03:49:04.382Z,7
2022-09-27T03:50:04.411Z,7
2022-09-27T03:51:04.411Z,7
2022-09-27T03:52:04.412Z,7
2022-09-27T03:53:04.412Z,7
2022-09-27T03:54:04.412Z,8
2022-09-27T03:55:04.412Z,8
2022-09-27T03:56:04.412Z,12
2022-09-27T03:57:04.413Z,13
2022-09-27T03:58:04.413Z,10
2022-09-27T03:59:04.385Z,10
2022-09-27T04:01:04.386Z,12
2022-09-27T04:02:04.386Z,11
2022-09-27T04:03:04.386Z,10
2022-09-27T04:04:04.386Z,11
2022-09-27T04:05:04.415Z,12
2022-09-27T04:06:04.415Z,11
2022-09-27T04:07:04.416Z,12
2022-09-27T04:08:04.416Z,12
2022-09-27T04:09:04.416Z,11
2022-09-27T04:10:04.416Z,12
2022-09-27T04:11:04.417Z,14
2022-09-27T04:12:04.417Z,13
2022-09-27T04:13:04.417Z,16
2022-09-27T04:14:04.389Z,12
2022-09-27T04:15:04.389Z,12
2022-09-27T04:16:04.390Z,10
2022-09-27T04:17:04.390Z,12
2022-09-27T04:19:04.390Z,11
2022-09-27T04:20:04.419Z,11
2022-09-27T04:21:04.419Z,9
2022-09-27T04:22:04.419Z,12
2022-09-27T04:23:04.420Z,10
2022-09-27T04:24:04.420Z,9
2022-09-27T04:25:04.420Z,9
2022-09-27T04:26:04.485Z,9
2022-09-27T04:27:04.421Z,10
2022-09-27T04:28:04.421Z,10
2022-09-27T04:29:04.430Z,11
2022-09-27T04:30:04.393Z,9
2022-09-27T04:31:04.394Z,8
2022-09-27T04:32:11.612Z,11
2022-09-27T04:33:04.394Z,8
2022-09-27T04:34:04.394Z,7
2022-09-27T04:35:04.422Z,11
2022-09-27T04:36:04.423Z,8
2022-09-27T04:37:04.423Z,11
2022-09-27T04:38:04.423Z,9
2022-09-27T04:39:04.423Z,11
2022-09-27T04:40:04.424Z,18
2022-09-27T04:41:04.424Z,13
2022-09-27T04:42:04.424Z,12
2022-09-27T04:43:04.425Z,13
2022-09-27T04:44:04.434Z,13
2022-09-27T04:45:04.397Z,15
2022-09-27T04:46:04.397Z,13
2022-09-27T04:47:04.398Z,11
2022-09-27T04:48:04.398Z,11
2022-09-27T04:49:04.398Z,11
2022-09-27T04:50:04.426Z,12
2022-09-27T04:51:04.426Z,13
2022-09-27T04:52:04.427Z,14
2022-09-27T04:53:04.435Z,14
2022-09-27T04:54:04.427Z,14
2022-09-27T04:55:04.428Z,10
2022-09-27T04:56:04.428Z,10
2022-09-27T04:57:04.428Z,12
2022-09-27T04:58:04.428Z,8
2022-09-27T04:59:04.429Z,11
2022-09-27T05:00:04.401Z,15
2022-09-27T05:01:04.401Z,16
2022-09-27T05:02:04.401Z,15
2022-09-27T05:03:04.402Z,17
2022-09-27T05:04:04.402Z,16
2022-09-27T05:05:04.402Z,14
2022-09-27T05:06:04.430Z,14
2022-09-27T05:07:04.431Z,17
2022-09-27T05:08:04.431Z,18
2022-09-27T05:09:04.431Z,22
2022-09-27T05:10:04.432Z,22
2022-09-27T05:11:04.432Z,30
2022-09-27T05:12:04.432Z,30
2022-09-27T05:13:04.432Z,36
2022-09-27T05:14:04.432Z,26
2022-09-27T05:15:04.405Z,25
2022-09-27T05:16:04.405Z,27
2022-09-27T05:17:04.405Z,30
2022-09-27T05:18:04.405Z,26
2022-09-27T05:19:04.406Z,25
2022-09-27T05:20:04.406Z,24
2022-09-27T05:21:04.434Z,21
2022-09-27T05:22:04.434Z,24
2022-09-27T05:23:04.435Z,21
2022-09-27T05:24:04.435Z,23
2022-09-27T05:25:04.435Z,30
2022-09-27T05:26:04.435Z,26
2022-09-27T05:27:04.436Z,23
2022-09-27T05:28:04.436Z,26
2022-09-27T05:29:04.436Z,26
2022-09-27T05:30:04.408Z,26
2022-09-27T05:31:04.409Z,24
2022-09-27T05:32:09.374Z,22
2022-09-27T05:33:04.409Z,25
2022-09-27T05:34:04.409Z,21
2022-09-27T05:35:04.410Z,25
2022-09-27T05:36:04.438Z,20
2022-09-27T05:37:04.438Z,23
2022-09-27T05:38:04.439Z,23
2022-09-27T05:39:04.439Z,18
2022-09-27T05:40:04.439Z,21
2022-09-27T05:41:04.439Z,24
2022-09-27T05:42:04.440Z,25
2022-09-27T05:43:04.440Z,25
2022-09-27T05:44:04.440Z,28
2022-09-27T05:45:04.412Z,24
2022-09-27T05:46:04.412Z,21
2022-09-27T05:47:04.413Z,24
2022-09-27T05:48:04.413Z,23
2022-09-27T05:49:04.413Z,26
2022-09-27T05:50:04.413Z,24
2022-09-27T05:51:04.442Z,18
2022-09-27T05:52:04.442Z,18
2022-09-27T05:53:04.442Z,19
2022-09-27T05:54:04.443Z,21
2022-09-27T05:55:04.443Z,18
2022-09-27T05:56:04.443Z,24
2022-09-27T05:57:04.443Z,24
2022-09-27T05:58:04.444Z,28
2022-09-27T05:59:04.444Z,25
2022-09-27T06:00:04.461Z,23
2022-09-27T06:01:04.416Z,25
2022-09-27T06:02:04.416Z,27
2022-09-27T06:03:04.444Z,25
2022-09-27T06:04:04.417Z,25
2022-09-27T06:05:04.417Z,20
2022-09-27T06:06:04.457Z,22
2022-09-27T06:07:04.446Z,24
2022-09-27T06:08:04.446Z,25
2022-09-27T06:09:04.463Z,25
2022-09-27T06:10:04.447Z,29
2022-09-27T06:11:04.447Z,26
2022-09-27T06:12:04.447Z,27
2022-09-27T06:13:04.447Z,30
2022-09-27T06:14:04.448Z,28
2022-09-27T06:15:04.448Z,32
2022-09-27T06:16:04.420Z,29
2022-09-27T06:17:04.420Z,33
2022-09-27T06:18:04.420Z,27
2022-09-27T06:19:04.421Z,33
2022-09-27T06:20:04.421Z,34
2022-09-27T06:21:04.421Z,33
2022-09-27T06:22:04.449Z,28
2022-09-27T06:23:04.450Z,35
2022-09-27T06:24:04.450Z,28
2022-09-27T06:25:04.450Z,27
2022-09-27T06:26:04.450Z,32
2022-09-27T06:27:04.451Z,28
2022-09-27T06:28:04.451Z,28
2022-09-27T06:29:04.451Z,36
2022-09-27T06:30:04.452Z,37
2022-09-27T06:31:04.424Z,38
2022-09-27T06:32:04.424Z,37
2022-09-27T06:33:04.424Z,33
2022-09-27T06:34:04.424Z,29
2022-09-27T06:35:04.425Z,26
2022-09-27T06:36:04.425Z,32
2022-09-27T06:37:04.453Z,31
2022-09-27T06:38:04.454Z,33
2022-09-27T06:39:04.454Z,34
2022-09-27T06:40:04.454Z,33
2022-09-27T06:41:04.454Z,34
2022-09-27T06:42:04.454Z,34
2022-09-27T06:43:04.455Z,32
2022-09-27T06:44:04.455Z,35
2022-09-27T06:45:04.455Z,37
2022-09-27T06:46:04.428Z,35
2022-09-27T06:47:04.428Z,37
2022-09-27T06:48:04.428Z,30
2022-09-27T06:49:04.428Z,33
2022-09-27T06:50:04.429Z,37
2022-09-27T06:51:04.429Z,29
2022-09-27T06:52:04.457Z,31
2022-09-27T06:53:04.457Z,34
2022-09-27T06:54:04.457Z,33
2022-09-27T06:55:04.458Z,35
2022-09-27T06:56:04.458Z,38
2022-09-27T06:57:04.458Z,33
2022-09-27T06:58:04.459Z,33
2022-09-27T06:59:04.459Z,37
2022-09-27T07:00:04.468Z,36
2022-09-27T07:01:04.431Z,38
2022-09-27T07:02:04.431Z,37
2022-09-27T07:03:04.432Z,41
2022-09-27T07:04:04.432Z,35
2022-09-27T07:05:04.432Z,41
2022-09-27T07:06:04.460Z,36
2022-09-27T07:07:04.461Z,40
2022-09-27T07:08:04.461Z,40
2022-09-27T07:09:04.470Z,45
2022-09-27T07:10:04.461Z,53
2022-09-27T07:11:04.462Z,44
2022-09-27T07:12:04.462Z,39
2022-09-27T07:13:04.462Z,41
2022-09-27T07:14:04.463Z,39
2022-09-27T07:15:04.463Z,38
2022-09-27T07:16:04.435Z,38
2022-09-27T07:17:04.435Z,41
2022-09-27T07:18:04.435Z,43
2022-09-27T07:19:04.436Z,40
2022-09-27T07:20:04.436Z,36
2022-09-27T07:21:04.436Z,35
2022-09-27T07:22:04.465Z,38
2022-09-27T07:23:04.465Z,36
2022-09-27T07:24:04.465Z,32
2022-09-27T07:25:04.465Z,35
2022-09-27T07:26:04.465Z,33
2022-09-27T07:27:04.466Z,32
2022-09-27T07:28:04.466Z,32
2022-09-27T07:29:04.466Z,38
2022-09-27T07:30:04.466Z,39
2022-09-27T07:31:04.439Z,38
2022-09-27T07:32:04.439Z,41
2022-09-27T07:33:04.439Z,38
2022-09-27T07:34:04.439Z,34
2022-09-27T07:35:04.440Z,37
2022-09-27T07:36:04.440Z,35
2022-09-27T07:37:04.468Z,30
2022-09-27T07:38:04.468Z,35
2022-09-27T07:39:04.469Z,32
2022-09-27T07:40:04.469Z,37
2022-09-27T07:41:04.469Z,40
2022-09-27T07:42:04.469Z,44
2022-09-27T07:43:04.470Z,46
2022-09-27T07:44:04.470Z,51
2022-09-27T07:45:04.470Z,54
2022-09-27T07:46:04.535Z,46
2022-09-27T07:47:04.443Z,46
2022-09-27T07:48:04.443Z,42
2022-09-27T07:49:04.471Z,37
2022-09-27T07:50:04.443Z,40
2022-09-27T07:51:04.444Z,41
2022-09-27T07:52:04.484Z,45
2022-09-27T07:53:04.472Z,44
2022-09-27T07:54:04.473Z,39
2022-09-27T07:55:04.473Z,33
2022-09-27T07:56:04.473Z,37
2022-09-27T07:57:04.473Z,41
2022-09-27T07:58:04.474Z,39
2022-09-27T07:59:04.474Z,33
2022-09-27T08:00:04.474Z,33
2022-09-27T08:01:04.491Z,35
2022-09-27T08:02:04.446Z,36
2022-09-27T08:03:04.447Z,38
2022-09-27T08:04:04.475Z,36
2022-09-27T08:05:04.447Z,38
2022-09-27T08:06:04.447Z,34
2022-09-27T08:07:04.489Z,34
2022-09-27T08:08:04.476Z,35
2022-09-27T08:09:04.476Z,46
2022-09-27T08:10:04.493Z,39
2022-09-27T08:11:04.477Z,42
2022-09-27T08:12:04.477Z,39
2022-09-27T08:13:04.477Z,33
2022-09-27T08:14:04.478Z,32
2022-09-27T08:15:04.478Z,32
2022-09-27T08:16:04.478Z,28
2022-09-27T08:17:04.450Z,30
2022-09-27T08:18:04.450Z,27
2022-09-27T08:19:04.451Z,29
2022-09-27T08:20:04.451Z,40
2022-09-27T08:21:04.451Z,40
2022-09-27T08:22:04.451Z,32
2022-09-27T08:23:04.480Z,36
2022-09-27T08:24:04.480Z,33
2022-09-27T08:25:04.480Z,39
2022-09-27T08:26:04.480Z,42
2022-09-27T08:27:04.481Z,34
2022-09-27T08:28:04.481Z,37
2022-09-27T08:29:04.481Z,48
2022-09-27T08:30:04.482Z,50
2022-09-27T08:31:04.482Z,50
2022-09-27T08:32:04.454Z,45
2022-09-27T08:33:04.454Z,42
2022-09-27T08:34:04.454Z,45
2022-09-27T08:35:04.455Z,36
2022-09-27T08:36:04.455Z,37
2022-09-27T08:37:04.455Z,33
2022-09-27T08:38:04.484Z,38
2022-09-27T08:39:04.484Z,46
2022-09-27T08:40:04.484Z,38
2022-09-27T08:41:04.484Z,49
2022-09-27T08:42:04.485Z,46
2022-09-27T08:43:04.485Z,43
2022-09-27T08:44:04.485Z,44
2022-09-27T08:45:04.486Z,47
2022-09-27T08:46:04.486Z,35
2022-09-27T08:48:04.458Z,39
2022-09-27T08:49:04.458Z,41
2022-09-27T08:50:04.459Z,42
2022-09-27T08:51:04.459Z,35
2022-09-27T08:52:04.459Z,43
2022-09-27T08:53:04.488Z,47
2022-09-27T08:54:04.488Z,55
2022-09-27T08:55:04.488Z,51
2022-09-27T08:56:04.488Z,52
2022-09-27T08:57:04.489Z,55
2022-09-27T08:58:04.489Z,48
2022-09-27T08:59:04.489Z,44
2022-09-27T09:00:04.489Z,49
2022-09-27T09:01:04.490Z,50
2022-09-27T09:02:04.462Z,51
2022-09-27T09:03:04.462Z,53
2022-09-27T09:04:04.462Z,45
2022-09-27T09:05:04.463Z,47
2022-09-27T09:06:04.463Z,48
2022-09-27T09:07:04.463Z,48
2022-09-27T09:08:04.492Z,43
2022-09-27T09:09:04.492Z,48
2022-09-27T09:10:04.492Z,48
2022-09-27T09:11:04.492Z,50
2022-09-27T09:12:04.493Z,49
2022-09-27T09:13:04.493Z,53
2022-09-27T09:14:04.493Z,40
2022-09-27T09:15:04.493Z,41
2022-09-27T09:16:04.494Z,42
2022-09-27T09:17:04.466Z,35
2022-09-27T09:18:04.466Z,41
2022-09-27T09:19:04.466Z,38
2022-09-27T09:20:04.467Z,42
2022-09-27T09:21:04.467Z,38
2022-09-27T09:22:04.467Z,35
2022-09-27T09:23:04.495Z,34
2022-09-27T09:24:04.496Z,38
2022-09-27T09:25:04.496Z,48
2022-09-27T09:26:04.496Z,47
2022-09-27T09:27:04.496Z,44
2022-09-27T09:28:04.497Z,47
2022-09-27T09:29:04.506Z,50
2022-09-27T09:30:04.497Z,49
2022-09-27T09:31:04.498Z,44
2022-09-27T09:32:04.498Z,42
2022-09-27T09:33:04.470Z,47
2022-09-27T09:34:04.470Z,44
2022-09-27T09:35:04.470Z,42
2022-09-27T09:36:04.471Z,35
2022-09-27T09:37:04.471Z,41
2022-09-27T09:38:04.471Z,38
2022-09-27T09:39:04.500Z,34
2022-09-27T09:40:04.500Z,30
2022-09-27T09:41:04.500Z,33
2022-09-27T09:42:04.500Z,46
2022-09-27T09:43:04.501Z,45
2022-09-27T09:44:04.501Z,51
2022-09-27T09:45:04.501Z,45
2022-09-27T09:46:04.502Z,44
2022-09-27T09:47:04.502Z,42
2022-09-27T09:48:04.474Z,48
2022-09-27T09:49:04.474Z,45
2022-09-27T09:50:04.475Z,46
2022-09-27T09:51:04.475Z,50
2022-09-27T09:52:04.475Z,54
2022-09-27T09:53:04.476Z,53
2022-09-27T09:54:04.504Z,42
2022-09-27T09:55:04.504Z,31
2022-09-27T09:56:04.505Z,36
2022-09-27T09:57:04.505Z,47
2022-09-27T09:58:04.506Z,44
2022-09-27T09:59:04.506Z,33
2022-09-27T10:00:04.506Z,41
2022-09-27T10:01:04.507Z,46
2022-09-27T10:02:04.507Z,45
2022-09-27T10:03:04.479Z,49
2022-09-27T10:04:04.480Z,53
2022-09-27T10:05:04.480Z,47
2022-09-27T10:06:04.480Z,56
2022-09-27T10:07:04.481Z,52
2022-09-27T10:08:04.481Z,56
2022-09-27T10:09:04.509Z,53
2022-09-27T10:10:04.510Z,49
2022-09-27T10:11:04.510Z,44
2022-09-27T10:12:04.510Z,54
2022-09-27T10:13:04.511Z,55
2022-09-27T10:14:04.511Z,67
2022-09-27T10:15:04.511Z,54
2022-09-27T10:16:04.512Z,51
2022-09-27T10:17:04.512Z,53
2022-09-27T10:18:04.484Z,57
2022-09-27T10:19:04.484Z,59
2022-09-27T10:20:04.485Z,47
2022-09-27T10:21:04.485Z,56
2022-09-27T10:22:04.486Z,68
2022-09-27T10:23:04.486Z,55
2022-09-27T10:24:04.514Z,47
2022-09-27T10:25:04.515Z,55
2022-09-27T10:26:04.515Z,60
2022-09-27T10:27:04.515Z,52
2022-09-27T10:28:04.516Z,62
2022-09-27T10:29:04.517Z,56
2022-09-27T10:30:04.581Z,42
2022-09-27T10:31:04.517Z,38
2022-09-27T10:32:04.517Z,38
2022-09-27T10:33:04.527Z,36
2022-09-27T10:34:04.490Z,47
2022-09-27T10:35:04.490Z,46
2022-09-27T10:36:04.491Z,45
2022-09-27T10:37:04.491Z,46
2022-09-27T10:38:04.491Z,55
2022-09-27T10:39:04.520Z,56
2022-09-27T10:40:04.520Z,49
2022-09-27T10:41:04.520Z,41
2022-09-27T10:42:04.529Z,49
2022-09-27T10:43:04.521Z,60
2022-09-27T10:44:04.522Z,51
2022-09-27T10:45:04.522Z,50
2022-09-27T10:46:04.522Z,45
2022-09-27T10:47:04.523Z,52
2022-09-27T10:48:04.523Z,47
2022-09-27T10:49:04.495Z,53
2022-09-27T10:50:04.495Z,58
2022-09-27T10:51:04.496Z,55
2022-09-27T10:52:04.496Z,62
2022-09-27T10:53:04.496Z,62
2022-09-27T10:54:04.525Z,65
2022-09-27T10:55:04.525Z,58
2022-09-27T10:56:04.525Z,58
2022-09-27T10:57:04.526Z,57
2022-09-27T10:58:04.526Z,51
2022-09-27T10:59:04.526Z,56
2022-09-27T11:00:04.536Z,54
2022-09-27T11:01:04.527Z,50
2022-09-27T11:02:04.527Z,59
2022-09-27T11:03:04.528Z,54
2022-09-27T11:04:04.500Z,53
2022-09-27T11:05:04.500Z,56
2022-09-27T11:06:04.501Z,66
2022-09-27T11:07:04.501Z,49
2022-09-27T11:08:04.501Z,48
2022-09-27T11:09:04.501Z,50
2022-09-27T11:10:04.530Z,59
2022-09-27T11:11:04.530Z,69
2022-09-27T11:12:04.530Z,80
2022-09-27T11:13:04.531Z,68
2022-09-27T11:14:04.531Z,59
2022-09-27T11:15:04.531Z,57
2022-09-27T11:16:04.532Z,56
2022-09-27T11:17:04.532Z,52
2022-09-27T11:18:04.532Z,63
2022-09-27T11:19:04.505Z,59
2022-09-27T11:20:04.505Z,69
2022-09-27T11:21:04.505Z,60
2022-09-27T11:22:04.506Z,66
2022-09-27T11:23:04.506Z,67
2022-09-27T11:24:04.506Z,64
2022-09-27T11:25:04.534Z,68
2022-09-27T11:26:04.535Z,57
2022-09-27T11:27:04.535Z,58
2022-09-27T11:28:04.536Z,51
2022-09-27T11:29:04.536Z,57
2022-09-27T11:30:04.536Z,73
2022-09-27T11:31:04.537Z,79
2022-09-27T11:32:04.537Z,79
2022-09-27T11:33:04.537Z,76
2022-09-27T11:34:04.509Z,76
2022-09-27T11:35:04.510Z,80
2022-09-27T11:36:04.510Z,76
2022-09-27T11:37:04.510Z,78
2022-09-27T11:38:04.511Z,70
2022-09-27T11:39:04.511Z,75
2022-09-27T11:40:04.539Z,79
2022-09-27T11:41:04.540Z,75
2022-09-27T11:42:04.540Z,68
2022-09-27T11:43:04.540Z,59
2022-09-27T11:44:04.541Z,62
2022-09-27T11:45:04.541Z,61
2022-09-27T11:46:04.542Z,71
2022-09-27T11:47:04.542Z,58
2022-09-27T11:48:04.542Z,53
2022-09-27T11:49:04.515Z,48
2022-09-27T11:50:04.515Z,51
2022-09-27T11:51:04.515Z,46
2022-09-27T11:52:04.516Z,57
2022-09-27T11:53:04.516Z,61
2022-09-27T11:54:04.516Z,69
2022-09-27T11:55:04.545Z,59
2022-09-27T11:56:04.545Z,45
2022-09-27T11:57:04.545Z,44
2022-09-27T11:58:04.546Z,46
2022-09-27T11:59:04.546Z,54
2022-09-27T12:00:04.547Z,48
2022-09-27T12:01:04.547Z,53
2022-09-27T12:02:04.547Z,53
2022-09-27T12:03:04.548Z,48
2022-09-27T12:04:04.520Z,51
2022-09-27T12:05:04.520Z,61
2022-09-27T12:06:04.521Z,58
2022-09-27T12:07:04.521Z,58
2022-09-27T12:08:04.521Z,57
2022-09-27T12:09:04.522Z,57
2022-09-27T12:10:04.550Z,47
2022-09-27T12:11:04.550Z,44
2022-09-27T12:12:04.551Z,38
2022-09-27T12:13:04.551Z,40
2022-09-27T12:14:04.551Z,45
2022-09-27T12:15:04.552Z,44
2022-09-27T12:16:04.552Z,39
2022-09-27T12:17:04.552Z,37
2022-09-27T12:18:04.552Z,39
2022-09-27T12:19:04.562Z,51
2022-09-27T12:20:04.525Z,40
2022-09-27T12:21:04.525Z,36
2022-09-27T12:22:04.525Z,39
2022-09-27T12:23:04.526Z,41
2022-09-27T12:25:04.554Z,47
2022-09-27T12:26:04.554Z,40
2022-09-27T12:27:04.555Z,41
2022-09-27T12:28:04.564Z,34
2022-09-27T12:29:04.555Z,38
2022-09-27T12:30:04.556Z,46
2022-09-27T12:31:04.556Z,42
2022-09-27T12:32:04.556Z,41
2022-09-27T12:33:04.557Z,46
2022-09-27T12:34:04.557Z,48
2022-09-27T12:35:04.529Z,48
2022-09-27T12:36:04.529Z,39
2022-09-27T12:37:04.530Z,45
2022-09-27T12:38:04.530Z,54
2022-09-27T12:39:04.530Z,60
2022-09-27T12:40:04.531Z,47
2022-09-27T12:41:04.559Z,41
2022-09-27T12:42:04.559Z,40
2022-09-27T12:43:04.559Z,37
2022-09-27T12:44:04.560Z,43
2022-09-27T12:45:04.560Z,50
2022-09-27T12:46:04.560Z,42
2022-09-27T12:47:04.561Z,45
2022-09-27T12:48:04.561Z,37
2022-09-27T12:49:04.561Z,40
2022-09-27T12:50:04.533Z,38
2022-09-27T12:51:04.534Z,41
2022-09-27T12:52:04.534Z,35
2022-09-27T12:53:05.611Z,37
2022-09-27T12:54:04.535Z,36
2022-09-27T12:55:04.568Z,43
2022-09-27T12:56:04.563Z,39
2022-09-27T12:57:04.564Z,54
2022-09-27T12:58:04.580Z,49
2022-09-27T12:59:04.564Z,42
2022-09-27T13:00:04.565Z,53
2022-09-27T13:01:04.565Z,45
2022-09-27T13:02:04.565Z,36
2022-09-27T13:03:04.565Z,42
2022-09-27T13:04:04.566Z,47
2022-09-27T13:05:04.538Z,40
2022-09-27T13:06:04.538Z,39
2022-09-27T13:07:04.538Z,44
2022-09-27T13:08:04.538Z,40
2022-09-27T13:09:04.539Z,36
2022-09-27T13:10:04.539Z,40
2022-09-27T13:11:04.567Z,48
2022-09-27T13:12:04.568Z,44
2022-09-27T13:13:04.568Z,41
2022-09-27T13:14:04.568Z,40
2022-09-27T13:15:04.568Z,43
2022-09-27T13:16:04.569Z,39
2022-09-27T13:17:04.569Z,43
2022-09-27T13:18:04.569Z,47
2022-09-27T13:19:04.570Z,40
2022-09-27T13:20:04.542Z,39
2022-09-27T13:21:04.542Z,38
2022-09-27T13:22:04.542Z,38
2022-09-27T13:23:04.543Z,43
2022-09-27T13:24:04.543Z,32
2022-09-27T13:25:04.543Z,33
2022-09-27T13:26:04.572Z,37
2022-09-27T13:27:04.572Z,40
2022-09-27T13:28:04.572Z,48
2022-09-27T13:29:04.572Z,40
2022-09-27T13:30:04.572Z,44
2022-09-27T13:31:04.573Z,53
2022-09-27T13:32:04.573Z,53
2022-09-27T13:33:04.573Z,45
2022-09-27T13:34:04.574Z,43
2022-09-27T13:35:04.546Z,47
2022-09-27T13:36:04.546Z,42
2022-09-27T13:37:04.546Z,36
2022-09-27T13:38:04.547Z,31
2022-09-27T13:39:04.547Z,38
2022-09-27T13:40:04.547Z,47
2022-09-27T13:41:04.576Z,38
2022-09-27T13:42:04.576Z,38
2022-09-27T13:43:04.576Z,33
2022-09-27T13:44:04.576Z,37
2022-09-27T13:45:04.577Z,43
2022-09-27T13:46:04.577Z,44
2022-09-27T13:47:04.586Z,40
2022-09-27T13:48:04.577Z,34
2022-09-27T13:49:04.578Z,35
2022-09-27T13:50:04.578Z,37
2022-09-27T13:51:04.550Z,39
2022-09-27T13:52:04.550Z,39
2022-09-27T13:53:11.609Z,42
2022-09-27T13:54:04.551Z,38
2022-09-27T13:55:04.551Z,45
2022-09-27T13:56:04.579Z,47
2022-09-27T13:57:04.580Z,42
2022-09-27T13:58:04.580Z,38
2022-09-27T13:59:04.580Z,56
2022-09-27T14:00:04.580Z,55
2022-09-27T14:01:04.581Z,38
2022-09-27T14:02:04.606Z,46
2022-09-27T14:03:04.581Z,44
2022-09-27T14:04:04.582Z,38
2022-09-27T14:05:04.582Z,37
2022-09-27T14:06:04.554Z,37
2022-09-27T14:07:04.554Z,44
2022-09-27T14:08:04.555Z,39
2022-09-27T14:09:04.555Z,38
2022-09-27T14:10:04.555Z,40
2022-09-27T14:11:04.555Z,37
2022-09-27T14:12:04.584Z,38
2022-09-27T14:13:04.584Z,43
2022-09-27T14:14:04.584Z,45
2022-09-27T14:15:04.584Z,43
2022-09-27T14:16:04.585Z,45
2022-09-27T14:17:04.585Z,44
2022-09-27T14:18:04.585Z,51
2022-09-27T14:19:04.586Z,52
2022-09-27T14:20:04.586Z,45
2022-09-27T14:21:04.558Z,38
2022-09-27T14:22:04.558Z,43
2022-09-27T14:23:04.559Z,48
2022-09-27T14:24:04.559Z,57
2022-09-27T14:25:04.559Z,49
2022-09-27T14:26:04.559Z,57